sensor_id;sensor_type;location;lat;lon;timestamp;temperature;humidity
21580;DHT22;10951;59.656;9.666;2023-08-01T00:02:21;12.00;99.90
21580;DHT22;10951;59.656;9.666;2023-08-01T00:04:48;12.10;99.90
21580;DHT22;10951;59.656;9.666;2023-08-01T00:07:18;12.10;99.90
21580;DHT22;10951;59.656;9.666;2023-08-01T00:09:45;12.20;99.90
21580;DHT22;10951;59.656;9.666;2023-08-01T00:12:12;12.20;99.90
21580;DHT22;10951;59.656;9.666;2023-08-01T00:14:39;12.20;99.90
21580;DHT22;10951;59.656;9.666;2023-08-01T00:17:06;12.10;99.90
21580;DHT22;10951;59.656;9.666;2023-08-01T00:19:33;12.00;99.90
21580;DHT22;10951;59.656;9.666;2023-08-01T00:22:00;11.90;99.90
21580;DHT22;10951;59.656;9.666;2023-08-01T00:24:27;11.80;99.90
21580;DHT22;10951;59.656;9.666;2023-08-01T00:26:54;11.70;99.90
21580;DHT22;10951;59.656;9.666;2023-08-01T00:29:22;11.80;99.90
21580;DHT22;10951;59.656;9.666;2023-08-01T00:31:49;11.70;99.90
21580;DHT22;10951;59.656;9.666;2023-08-01T00:34:16;11.60;99.90
21580;DHT22;10951;59.656;9.666;2023-08-01T00:36:43;11.60;99.90
21580;DHT22;10951;59.656;9.666;2023-08-01T00:39:10;11.60;99.90
21580;DHT22;10951;59.656;9.666;2023-08-01T00:41:37;11.60;99.90
21580;DHT22;10951;59.656;9.666;2023-08-01T00:44:04;11.60;99.90
21580;DHT22;10951;59.656;9.666;2023-08-01T00:46:32;11.50;99.90
21580;DHT22;10951;59.656;9.666;2023-08-01T00:48:59;11.50;99.90
21580;DHT22;10951;59.656;9.666;2023-08-01T00:51:27;11.50;99.90
21580;DHT22;10951;59.656;9.666;2023-08-01T00:53:55;11.50;99.90
21580;DHT22;10951;59.656;9.666;2023-08-01T00:56:23;11.50;99.90
21580;DHT22;10951;59.656;9.666;2023-08-01T00:58:50;11.60;99.90
21580;DHT22;10951;59.656;9.666;2023-08-01T01:01:17;11.60;99.90
21580;DHT22;10951;59.656;9.666;2023-08-01T01:03:45;11.60;99.90
21580;DHT22;10951;59.656;9.666;2023-08-01T01:06:28;11.60;99.90
21580;DHT22;10951;59.656;9.666;2023-08-01T01:08:58;11.50;99.90
21580;DHT22;10951;59.656;9.666;2023-08-01T01:11:25;11.40;99.90
21580;DHT22;10951;59.656;9.666;2023-08-01T01:13:52;11.40;99.90
21580;DHT22;10951;59.656;9.666;2023-08-01T01:16:21;11.40;99.90
21580;DHT22;10951;59.656;9.666;2023-08-01T01:18:48;11.30;99.90
21580;DHT22;10951;59.656;9.666;2023-08-01T01:21:15;11.30;99.90
21580;DHT22;10951;59.656;9.666;2023-08-01T01:23:42;11.40;99.90
21580;DHT22;10951;59.656;9.666;2023-08-01T01:26:10;11.30;99.90
21580;DHT22;10951;59.656;9.666;2023-08-01T01:28:38;11.30;99.90
21580;DHT22;10951;59.656;9.666;2023-08-01T01:31:07;11.30;99.90
21580;DHT22;10951;59.656;9.666;2023-08-01T01:33:34;11.30;99.90
21580;DHT22;10951;59.656;9.666;2023-08-01T01:36:02;11.40;99.90
21580;DHT22;10951;59.656;9.666;2023-08-01T01:38:29;11.40;99.90
21580;DHT22;10951;59.656;9.666;2023-08-01T01:40:56;11.30;99.90
21580;DHT22;10951;59.656;9.666;2023-08-01T01:43:23;11.20;99.90
21580;DHT22;10951;59.656;9.666;2023-08-01T01:45:50;11.10;99.90
21580;DHT22;10951;59.656;9.666;2023-08-01T01:48:17;10.90;99.90
21580;DHT22;10951;59.656;9.666;2023-08-01T01:50:44;10.80;99.90
21580;DHT22;10951;59.656;9.666;2023-08-01T01:53:11;10.70;99.90
21580;DHT22;10951;59.656;9.666;2023-08-01T01:55:38;10.60;99.90
21580;DHT22;10951;59.656;9.666;2023-08-01T01:58:06;10.60;99.90
21580;DHT22;10951;59.656;9.666;2023-08-01T02:00:33;10.50;99.90
21580;DHT22;10951;59.656;9.666;2023-08-01T02:03:00;10.50;99.90
21580;DHT22;10951;59.656;9.666;2023-08-01T02:05:30;10.60;99.90
21580;DHT22;10951;59.656;9.666;2023-08-01T02:07:57;10.50;99.90
21580;DHT22;10951;59.656;9.666;2023-08-01T02:10:24;10.50;99.90
21580;DHT22;10951;59.656;9.666;2023-08-01T02:12:52;10.40;99.90
21580;DHT22;10951;59.656;9.666;2023-08-01T02:15:19;10.40;99.90
21580;DHT22;10951;59.656;9.666;2023-08-01T02:17:46;10.30;99.90
21580;DHT22;10951;59.656;9.666;2023-08-01T02:20:13;10.40;99.90
21580;DHT22;10951;59.656;9.666;2023-08-01T02:22:40;10.40;99.90
21580;DHT22;10951;59.656;9.666;2023-08-01T02:25:07;10.40;99.90
21580;DHT22;10951;59.656;9.666;2023-08-01T02:27:34;10.30;99.90
21580;DHT22;10951;59.656;9.666;2023-08-01T02:30:01;10.30;99.90
21580;DHT22;10951;59.656;9.666;2023-08-01T02:32:28;10.20;99.90
21580;DHT22;10951;59.656;9.666;2023-08-01T02:34:58;10.20;99.90
21580;DHT22;10951;59.656;9.666;2023-08-01T02:37:25;10.20;99.90
21580;DHT22;10951;59.656;9.666;2023-08-01T02:39:52;10.20;99.90
21580;DHT22;10951;59.656;9.666;2023-08-01T02:42:18;10.20;99.90
21580;DHT22;10951;59.656;9.666;2023-08-01T02:44:45;10.20;99.90
21580;DHT22;10951;59.656;9.666;2023-08-01T02:47:12;10.20;99.90
21580;DHT22;10951;59.656;9.666;2023-08-01T02:49:39;10.20;99.90
21580;DHT22;10951;59.656;9.666;2023-08-01T02:52:06;10.30;99.90
21580;DHT22;10951;59.656;9.666;2023-08-01T02:54:33;10.30;99.90
21580;DHT22;10951;59.656;9.666;2023-08-01T02:57:00;10.20;99.90
21580;DHT22;10951;59.656;9.666;2023-08-01T02:59:27;10.20;99.90
21580;DHT22;10951;59.656;9.666;2023-08-01T03:01:54;10.20;99.90
21580;DHT22;10951;59.656;9.666;2023-08-01T03:04:21;10.20;99.90
21580;DHT22;10951;59.656;9.666;2023-08-01T03:07:06;10.20;99.90
21580;DHT22;10951;59.656;9.666;2023-08-01T03:09:33;10.10;99.90
21580;DHT22;10951;59.656;9.666;2023-08-01T03:12:00;10.10;99.90
21580;DHT22;10951;59.656;9.666;2023-08-01T03:14:27;10.10;99.90
21580;DHT22;10951;59.656;9.666;2023-08-01T03:16:53;10.00;99.90
21580;DHT22;10951;59.656;9.666;2023-08-01T03:19:20;10.10;99.90
21580;DHT22;10951;59.656;9.666;2023-08-01T03:21:47;10.10;99.90
21580;DHT22;10951;59.656;9.666;2023-08-01T03:24:14;10.10;99.90
21580;DHT22;10951;59.656;9.666;2023-08-01T03:26:41;10.20;99.90
21580;DHT22;10951;59.656;9.666;2023-08-01T03:29:08;10.20;99.90
21580;DHT22;10951;59.656;9.666;2023-08-01T03:31:35;10.10;99.90
21580;DHT22;10951;59.656;9.666;2023-08-01T03:34:02;10.10;99.90
21580;DHT22;10951;59.656;9.666;2023-08-01T03:36:29;10.10;99.90
21580;DHT22;10951;59.656;9.666;2023-08-01T03:38:56;10.10;99.90
21580;DHT22;10951;59.656;9.666;2023-08-01T03:41:23;10.10;99.90
21580;DHT22;10951;59.656;9.666;2023-08-01T03:43:50;10.10;99.90
21580;DHT22;10951;59.656;9.666;2023-08-01T03:46:17;10.20;99.90
21580;DHT22;10951;59.656;9.666;2023-08-01T03:48:44;10.20;99.90
21580;DHT22;10951;59.656;9.666;2023-08-01T03:51:11;10.20;99.90
21580;DHT22;10951;59.656;9.666;2023-08-01T03:53:38;10.20;99.90
21580;DHT22;10951;59.656;9.666;2023-08-01T03:56:05;10.30;99.90
21580;DHT22;10951;59.656;9.666;2023-08-01T03:58:31;10.30;99.90
21580;DHT22;10951;59.656;9.666;2023-08-01T04:00:58;10.30;99.90
21580;DHT22;10951;59.656;9.666;2023-08-01T04:03:26;10.30;99.90
21580;DHT22;10951;59.656;9.666;2023-08-01T04:05:53;10.30;99.90
21580;DHT22;10951;59.656;9.666;2023-08-01T04:08:20;10.30;99.90
21580;DHT22;10951;59.656;9.666;2023-08-01T04:10:48;10.30;99.90
21580;DHT22;10951;59.656;9.666;2023-08-01T04:13:16;10.30;99.90
21580;DHT22;10951;59.656;9.666;2023-08-01T04:15:43;10.30;99.90
21580;DHT22;10951;59.656;9.666;2023-08-01T04:18:10;10.30;99.90
21580;DHT22;10951;59.656;9.666;2023-08-01T04:20:37;10.30;99.90
21580;DHT22;10951;59.656;9.666;2023-08-01T04:23:04;10.40;99.90
21580;DHT22;10951;59.656;9.666;2023-08-01T04:25:30;10.40;99.90
21580;DHT22;10951;59.656;9.666;2023-08-01T04:27:57;10.40;99.90
21580;DHT22;10951;59.656;9.666;2023-08-01T04:30:24;10.40;99.90
21580;DHT22;10951;59.656;9.666;2023-08-01T04:32:51;10.40;99.90
21580;DHT22;10951;59.656;9.666;2023-08-01T04:35:18;10.40;99.90
21580;DHT22;10951;59.656;9.666;2023-08-01T04:37:45;10.40;99.90
21580;DHT22;10951;59.656;9.666;2023-08-01T04:40:12;10.50;99.90
21580;DHT22;10951;59.656;9.666;2023-08-01T04:42:39;10.40;99.90
21580;DHT22;10951;59.656;9.666;2023-08-01T04:45:06;10.50;99.90
21580;DHT22;10951;59.656;9.666;2023-08-01T04:47:33;10.50;99.90
21580;DHT22;10951;59.656;9.666;2023-08-01T04:50:02;10.50;99.90
21580;DHT22;10951;59.656;9.666;2023-08-01T04:52:28;10.60;99.90
21580;DHT22;10951;59.656;9.666;2023-08-01T04:54:56;10.60;99.90
21580;DHT22;10951;59.656;9.666;2023-08-01T04:57:22;10.60;99.90
21580;DHT22;10951;59.656;9.666;2023-08-01T04:59:49;10.70;99.90
21580;DHT22;10951;59.656;9.666;2023-08-01T05:02:16;10.80;99.90
21580;DHT22;10951;59.656;9.666;2023-08-01T05:04:43;10.90;99.90
21580;DHT22;10951;59.656;9.666;2023-08-01T05:07:10;10.90;99.90
21580;DHT22;10951;59.656;9.666;2023-08-01T05:09:36;11.00;99.90
21580;DHT22;10951;59.656;9.666;2023-08-01T05:12:04;11.20;99.90
21580;DHT22;10951;59.656;9.666;2023-08-01T05:14:31;11.20;99.90
21580;DHT22;10951;59.656;9.666;2023-08-01T05:16:58;11.50;99.90
21580;DHT22;10951;59.656;9.666;2023-08-01T05:19:25;11.60;99.90
21580;DHT22;10951;59.656;9.666;2023-08-01T05:21:52;11.90;99.90
21580;DHT22;10951;59.656;9.666;2023-08-01T05:24:19;12.30;99.90
21580;DHT22;10951;59.656;9.666;2023-08-01T05:26:45;12.60;99.90
21580;DHT22;10951;59.656;9.666;2023-08-01T05:29:12;12.90;99.90
21580;DHT22;10951;59.656;9.666;2023-08-01T05:31:39;13.30;99.90
21580;DHT22;10951;59.656;9.666;2023-08-01T05:34:07;13.50;99.90
21580;DHT22;10951;59.656;9.666;2023-08-01T05:36:34;13.70;99.90
21580;DHT22;10951;59.656;9.666;2023-08-01T05:39:01;13.90;99.90
21580;DHT22;10951;59.656;9.666;2023-08-01T05:41:28;14.00;99.90
21580;DHT22;10951;59.656;9.666;2023-08-01T05:43:54;14.30;99.90
21580;DHT22;10951;59.656;9.666;2023-08-01T05:46:22;14.50;99.90
21580;DHT22;10951;59.656;9.666;2023-08-01T05:48:49;14.60;99.20
21580;DHT22;10951;59.656;9.666;2023-08-01T05:51:15;14.60;99.30
21580;DHT22;10951;59.656;9.666;2023-08-01T05:53:42;14.70;99.10
21580;DHT22;10951;59.656;9.666;2023-08-01T05:56:09;14.80;98.80
21580;DHT22;10951;59.656;9.666;2023-08-01T05:58:36;15.00;98.60
21580;DHT22;10951;59.656;9.666;2023-08-01T06:01:05;15.10;98.40
21580;DHT22;10951;59.656;9.666;2023-08-01T06:03:32;15.30;97.60
21580;DHT22;10951;59.656;9.666;2023-08-01T06:05:59;15.50;97.20
21580;DHT22;10951;59.656;9.666;2023-08-01T06:08:26;15.60;97.10
21580;DHT22;10951;59.656;9.666;2023-08-01T06:10:53;15.50;96.70
21580;DHT22;10951;59.656;9.666;2023-08-01T06:13:20;15.30;97.00
21580;DHT22;10951;59.656;9.666;2023-08-01T06:15:47;15.00;97.20
21580;DHT22;10951;59.656;9.666;2023-08-01T06:18:14;14.80;97.60
21580;DHT22;10951;59.656;9.666;2023-08-01T06:20:41;14.40;98.00
21580;DHT22;10951;59.656;9.666;2023-08-01T06:23:08;14.20;98.80
21580;DHT22;10951;59.656;9.666;2023-08-01T06:25:35;14.20;99.00
21580;DHT22;10951;59.656;9.666;2023-08-01T06:28:02;14.10;99.20
21580;DHT22;10951;59.656;9.666;2023-08-01T06:30:29;14.00;99.50
21580;DHT22;10951;59.656;9.666;2023-08-01T06:32:55;13.90;99.80
21580;DHT22;10951;59.656;9.666;2023-08-01T06:35:22;13.90;99.80
21580;DHT22;10951;59.656;9.666;2023-08-01T06:37:49;14.10;99.90
21580;DHT22;10951;59.656;9.666;2023-08-01T06:40:16;14.30;99.50
21580;DHT22;10951;59.656;9.666;2023-08-01T06:42:43;14.60;99.50
21580;DHT22;10951;59.656;9.666;2023-08-01T06:45:10;14.90;98.50
21580;DHT22;10951;59.656;9.666;2023-08-01T06:47:37;15.20;97.90
21580;DHT22;10951;59.656;9.666;2023-08-01T06:50:05;15.30;97.70
21580;DHT22;10951;59.656;9.666;2023-08-01T06:52:32;15.40;97.40
21580;DHT22;10951;59.656;9.666;2023-08-01T06:54:59;15.60;97.10
21580;DHT22;10951;59.656;9.666;2023-08-01T06:57:26;15.70;97.20
21580;DHT22;10951;59.656;9.666;2023-08-01T06:59:53;16.00;97.00
21580;DHT22;10951;59.656;9.666;2023-08-01T07:02:20;16.30;96.20
21580;DHT22;10951;59.656;9.666;2023-08-01T07:04:47;16.40;96.10
21580;DHT22;10951;59.656;9.666;2023-08-01T07:07:14;16.70;96.30
21580;DHT22;10951;59.656;9.666;2023-08-01T07:09:40;17.00;95.00
21580;DHT22;10951;59.656;9.666;2023-08-01T07:12:08;16.90;94.40
21580;DHT22;10951;59.656;9.666;2023-08-01T07:14:35;16.80;94.70
21580;DHT22;10951;59.656;9.666;2023-08-01T07:17:02;16.60;94.90
21580;DHT22;10951;59.656;9.666;2023-08-01T07:19:28;16.70;95.00
21580;DHT22;10951;59.656;9.666;2023-08-01T07:21:55;16.70;94.80
21580;DHT22;10951;59.656;9.666;2023-08-01T07:24:25;16.80;94.80
21580;DHT22;10951;59.656;9.666;2023-08-01T07:26:55;16.80;94.90
21580;DHT22;10951;59.656;9.666;2023-08-01T07:29:22;17.10;94.20
21580;DHT22;10951;59.656;9.666;2023-08-01T07:31:49;17.30;94.50
21580;DHT22;10951;59.656;9.666;2023-08-01T07:34:16;17.60;93.80
21580;DHT22;10951;59.656;9.666;2023-08-01T07:36:42;17.80;93.80
21580;DHT22;10951;59.656;9.666;2023-08-01T07:39:09;18.00;93.10
21580;DHT22;10951;59.656;9.666;2023-08-01T07:41:36;18.10;92.70
21580;DHT22;10951;59.656;9.666;2023-08-01T07:44:03;18.30;92.20
21580;DHT22;10951;59.656;9.666;2023-08-01T07:46:31;18.60;92.60
21580;DHT22;10951;59.656;9.666;2023-08-01T07:48:58;18.90;92.30
21580;DHT22;10951;59.656;9.666;2023-08-01T07:51:26;19.10;91.00
21580;DHT22;10951;59.656;9.666;2023-08-01T07:53:54;19.10;91.60
21580;DHT22;10951;59.656;9.666;2023-08-01T07:56:21;19.30;91.40
21580;DHT22;10951;59.656;9.666;2023-08-01T07:58:48;19.40;90.60
21580;DHT22;10951;59.656;9.666;2023-08-01T08:01:15;19.50;91.00
21580;DHT22;10951;59.656;9.666;2023-08-01T08:03:42;19.40;90.70
21580;DHT22;10951;59.656;9.666;2023-08-01T08:06:09;19.40;90.90
21580;DHT22;10951;59.656;9.666;2023-08-01T08:08:36;19.30;91.20
21580;DHT22;10951;59.656;9.666;2023-08-01T08:11:06;19.30;91.40
21580;DHT22;10951;59.656;9.666;2023-08-01T08:13:33;19.30;91.40
21580;DHT22;10951;59.656;9.666;2023-08-01T08:15:59;19.30;91.00
21580;DHT22;10951;59.656;9.666;2023-08-01T08:18:27;19.40;90.90
21580;DHT22;10951;59.656;9.666;2023-08-01T08:20:53;19.40;89.60
21580;DHT22;10951;59.656;9.666;2023-08-01T08:23:20;19.50;89.70
21580;DHT22;10951;59.656;9.666;2023-08-01T08:25:47;19.80;90.50
21580;DHT22;10951;59.656;9.666;2023-08-01T08:28:16;20.20;89.80
21580;DHT22;10951;59.656;9.666;2023-08-01T08:30:43;20.50;85.30
21580;DHT22;10951;59.656;9.666;2023-08-01T08:33:19;20.80;85.60
21580;DHT22;10951;59.656;9.666;2023-08-01T08:35:46;20.90;84.80
21580;DHT22;10951;59.656;9.666;2023-08-01T08:38:13;20.80;83.80
21580;DHT22;10951;59.656;9.666;2023-08-01T08:40:43;20.60;81.80
21580;DHT22;10951;59.656;9.666;2023-08-01T08:43:14;20.40;81.80
21580;DHT22;10951;59.656;9.666;2023-08-01T08:45:43;20.10;85.90
21580;DHT22;10951;59.656;9.666;2023-08-01T08:48:13;20.10;84.20
21580;DHT22;10951;59.656;9.666;2023-08-01T08:50:43;20.10;85.00
21580;DHT22;10951;59.656;9.666;2023-08-01T08:53:12;20.00;86.00
21580;DHT22;10951;59.656;9.666;2023-08-01T08:55:40;20.10;87.10
21580;DHT22;10951;59.656;9.666;2023-08-01T08:58:07;20.00;84.60
21580;DHT22;10951;59.656;9.666;2023-08-01T09:00:38;19.90;82.60
21580;DHT22;10951;59.656;9.666;2023-08-01T09:03:05;19.80;83.10
21580;DHT22;10951;59.656;9.666;2023-08-01T09:05:49;19.60;84.10
21580;DHT22;10951;59.656;9.666;2023-08-01T09:08:19;19.40;84.20
21580;DHT22;10951;59.656;9.666;2023-08-01T09:10:47;19.20;85.30
21580;DHT22;10951;59.656;9.666;2023-08-01T09:13:14;19.00;83.70
21580;DHT22;10951;59.656;9.666;2023-08-01T09:15:42;18.90;84.40
21580;DHT22;10951;59.656;9.666;2023-08-01T09:18:11;18.70;84.50
21580;DHT22;10951;59.656;9.666;2023-08-01T09:20:47;18.60;85.70
21580;DHT22;10951;59.656;9.666;2023-08-01T09:23:15;18.50;85.60
21580;DHT22;10951;59.656;9.666;2023-08-01T09:25:44;18.60;87.20
21580;DHT22;10951;59.656;9.666;2023-08-01T09:28:22;18.60;88.40
21580;DHT22;10951;59.656;9.666;2023-08-01T09:30:50;18.70;89.60
21580;DHT22;10951;59.656;9.666;2023-08-01T09:33:18;18.90;89.40
21580;DHT22;10951;59.656;9.666;2023-08-01T09:35:45;19.40;90.00
21580;DHT22;10951;59.656;9.666;2023-08-01T09:38:13;20.00;88.30
21580;DHT22;10951;59.656;9.666;2023-08-01T09:40:43;20.40;83.20
21580;DHT22;10951;59.656;9.666;2023-08-01T09:43:11;20.70;84.20
21580;DHT22;10951;59.656;9.666;2023-08-01T09:45:52;21.00;80.30
21580;DHT22;10951;59.656;9.666;2023-08-01T09:48:26;21.20;82.30
21580;DHT22;10951;59.656;9.666;2023-08-01T09:51:06;21.20;83.70
21580;DHT22;10951;59.656;9.666;2023-08-01T09:53:35;21.20;82.70
21580;DHT22;10951;59.656;9.666;2023-08-01T09:56:03;21.10;78.70
21580;DHT22;10951;59.656;9.666;2023-08-01T09:58:33;21.00;78.10
21580;DHT22;10951;59.656;9.666;2023-08-01T10:01:01;20.90;79.30
21580;DHT22;10951;59.656;9.666;2023-08-01T10:03:28;20.90;79.80
21580;DHT22;10951;59.656;9.666;2023-08-01T10:05:58;20.90;81.50
21580;DHT22;10951;59.656;9.666;2023-08-01T10:08:25;21.00;82.10
21580;DHT22;10951;59.656;9.666;2023-08-01T10:10:54;21.00;79.40
21580;DHT22;10951;59.656;9.666;2023-08-01T10:13:24;21.00;78.80
21580;DHT22;10951;59.656;9.666;2023-08-01T10:15:54;21.00;79.70
21580;DHT22;10951;59.656;9.666;2023-08-01T10:18:22;20.90;78.70
21580;DHT22;10951;59.656;9.666;2023-08-01T10:20:49;21.00;79.50
21580;DHT22;10951;59.656;9.666;2023-08-01T10:23:17;21.00;78.90
21580;DHT22;10951;59.656;9.666;2023-08-01T10:25:45;21.00;80.60
21580;DHT22;10951;59.656;9.666;2023-08-01T10:28:12;21.00;77.20
21580;DHT22;10951;59.656;9.666;2023-08-01T10:30:39;21.00;76.10
21580;DHT22;10951;59.656;9.666;2023-08-01T10:33:06;20.90;76.00
21580;DHT22;10951;59.656;9.666;2023-08-01T10:35:39;20.80;75.80
21580;DHT22;10951;59.656;9.666;2023-08-01T10:38:09;20.60;75.80
21580;DHT22;10951;59.656;9.666;2023-08-01T10:40:41;20.60;74.10
21580;DHT22;10951;59.656;9.666;2023-08-01T10:43:29;20.60;75.40
21580;DHT22;10951;59.656;9.666;2023-08-01T10:46:03;20.60;74.20
21580;DHT22;10951;59.656;9.666;2023-08-01T10:48:30;20.70;73.10
21580;DHT22;10951;59.656;9.666;2023-08-01T10:50:58;20.80;74.30
21580;DHT22;10951;59.656;9.666;2023-08-01T10:53:25;20.80;73.80
21580;DHT22;10951;59.656;9.666;2023-08-01T10:55:52;20.80;72.50
21580;DHT22;10951;59.656;9.666;2023-08-01T10:58:19;20.90;71.60
21580;DHT22;10951;59.656;9.666;2023-08-01T11:00:46;20.90;72.00
21580;DHT22;10951;59.656;9.666;2023-08-01T11:03:13;21.00;70.60
21580;DHT22;10951;59.656;9.666;2023-08-01T11:05:42;21.00;71.70
21580;DHT22;10951;59.656;9.666;2023-08-01T11:08:09;21.10;71.60
21580;DHT22;10951;59.656;9.666;2023-08-01T11:10:35;21.20;69.90
21580;DHT22;10951;59.656;9.666;2023-08-01T11:13:02;21.20;70.60
21580;DHT22;10951;59.656;9.666;2023-08-01T11:15:30;21.20;71.20
21580;DHT22;10951;59.656;9.666;2023-08-01T11:17:56;21.10;70.80
21580;DHT22;10951;59.656;9.666;2023-08-01T11:20:25;21.10;71.10
21580;DHT22;10951;59.656;9.666;2023-08-01T11:22:58;21.10;70.40
21580;DHT22;10951;59.656;9.666;2023-08-01T11:25:43;21.10;72.20
21580;DHT22;10951;59.656;9.666;2023-08-01T11:28:15;21.20;72.90
21580;DHT22;10951;59.656;9.666;2023-08-01T11:30:42;21.20;71.90
21580;DHT22;10951;59.656;9.666;2023-08-01T11:33:28;21.20;71.20
21580;DHT22;10951;59.656;9.666;2023-08-01T11:35:56;21.30;71.10
21580;DHT22;10951;59.656;9.666;2023-08-01T11:38:29;21.30;71.00
21580;DHT22;10951;59.656;9.666;2023-08-01T11:40:57;21.30;71.80
21580;DHT22;10951;59.656;9.666;2023-08-01T11:43:24;21.30;69.30
21580;DHT22;10951;59.656;9.666;2023-08-01T11:45:55;21.30;70.70
21580;DHT22;10951;59.656;9.666;2023-08-01T11:48:23;21.40;70.70
21580;DHT22;10951;59.656;9.666;2023-08-01T11:50:58;21.40;71.10
21580;DHT22;10951;59.656;9.666;2023-08-01T11:53:25;21.50;70.20
21580;DHT22;10951;59.656;9.666;2023-08-01T11:55:52;21.50;71.10
21580;DHT22;10951;59.656;9.666;2023-08-01T11:58:39;21.50;72.20
21580;DHT22;10951;59.656;9.666;2023-08-01T12:01:11;21.50;71.60
21580;DHT22;10951;59.656;9.666;2023-08-01T12:06:14;21.50;72.10
21580;DHT22;10951;59.656;9.666;2023-08-01T12:08:41;21.60;71.40
21580;DHT22;10951;59.656;9.666;2023-08-01T12:13:47;21.80;71.50
21580;DHT22;10951;59.656;9.666;2023-08-01T12:16:14;21.70;72.50
21580;DHT22;10951;59.656;9.666;2023-08-01T12:18:46;21.70;72.20
21580;DHT22;10951;59.656;9.666;2023-08-01T12:21:27;21.80;67.40
21580;DHT22;10951;59.656;9.666;2023-08-01T12:23:53;21.70;67.40
21580;DHT22;10951;59.656;9.666;2023-08-01T12:26:21;21.70;67.50
21580;DHT22;10951;59.656;9.666;2023-08-01T12:28:49;21.70;70.80
21580;DHT22;10951;59.656;9.666;2023-08-01T12:31:17;21.80;66.80
21580;DHT22;10951;59.656;9.666;2023-08-01T12:33:45;22.20;67.00
21580;DHT22;10951;59.656;9.666;2023-08-01T12:36:13;22.60;65.70
21580;DHT22;10951;59.656;9.666;2023-08-01T12:38:40;23.00;71.70
21580;DHT22;10951;59.656;9.666;2023-08-01T12:41:07;23.30;70.00
21580;DHT22;10951;59.656;9.666;2023-08-01T12:43:35;23.40;68.50
21580;DHT22;10951;59.656;9.666;2023-08-01T12:46:02;23.50;67.60
21580;DHT22;10951;59.656;9.666;2023-08-01T12:48:29;23.70;65.60
21580;DHT22;10951;59.656;9.666;2023-08-01T12:50:56;23.90;64.10
21580;DHT22;10951;59.656;9.666;2023-08-01T12:53:23;24.20;63.00
21580;DHT22;10951;59.656;9.666;2023-08-01T12:55:55;24.30;64.50
21580;DHT22;10951;59.656;9.666;2023-08-01T12:58:23;24.40;59.90
21580;DHT22;10951;59.656;9.666;2023-08-01T13:00:50;24.50;61.00
21580;DHT22;10951;59.656;9.666;2023-08-01T13:03:16;24.40;60.60
21580;DHT22;10951;59.656;9.666;2023-08-01T13:05:43;24.50;62.30
21580;DHT22;10951;59.656;9.666;2023-08-01T13:08:10;24.50;62.40
21580;DHT22;10951;59.656;9.666;2023-08-01T13:10:38;24.60;61.30
21580;DHT22;10951;59.656;9.666;2023-08-01T13:13:06;24.60;57.80
21580;DHT22;10951;59.656;9.666;2023-08-01T13:15:33;24.50;56.60
21580;DHT22;10951;59.656;9.666;2023-08-01T13:18:00;24.50;56.30
21580;DHT22;10951;59.656;9.666;2023-08-01T13:20:27;24.40;55.50
21580;DHT22;10951;59.656;9.666;2023-08-01T13:22:57;24.30;55.60
21580;DHT22;10951;59.656;9.666;2023-08-01T13:25:24;24.20;55.50
21580;DHT22;10951;59.656;9.666;2023-08-01T13:27:51;24.30;54.40
21580;DHT22;10951;59.656;9.666;2023-08-01T13:30:18;24.10;53.50
21580;DHT22;10951;59.656;9.666;2023-08-01T13:32:45;23.90;55.10
21580;DHT22;10951;59.656;9.666;2023-08-01T13:35:13;23.70;54.20
21580;DHT22;10951;59.656;9.666;2023-08-01T13:37:40;23.50;54.60
21580;DHT22;10951;59.656;9.666;2023-08-01T13:40:08;23.40;58.60
21580;DHT22;10951;59.656;9.666;2023-08-01T13:42:35;23.40;60.60
21580;DHT22;10951;59.656;9.666;2023-08-01T13:45:02;23.50;61.50
21580;DHT22;10951;59.656;9.666;2023-08-01T13:47:29;23.60;60.00
21580;DHT22;10951;59.656;9.666;2023-08-01T13:49:56;23.70;61.00
21580;DHT22;10951;59.656;9.666;2023-08-01T13:52:23;23.80;60.60
21580;DHT22;10951;59.656;9.666;2023-08-01T13:54:50;24.00;60.50
21580;DHT22;10951;59.656;9.666;2023-08-01T13:57:17;24.10;59.80
21580;DHT22;10951;59.656;9.666;2023-08-01T13:59:44;24.30;60.70
21580;DHT22;10951;59.656;9.666;2023-08-01T14:02:24;24.50;59.00
21580;DHT22;10951;59.656;9.666;2023-08-01T14:04:51;24.50;58.10
21580;DHT22;10951;59.656;9.666;2023-08-01T14:07:20;24.50;58.30
21580;DHT22;10951;59.656;9.666;2023-08-01T14:09:47;24.50;58.50
21580;DHT22;10951;59.656;9.666;2023-08-01T14:12:14;24.40;58.00
21580;DHT22;10951;59.656;9.666;2023-08-01T14:14:44;24.40;60.00
21580;DHT22;10951;59.656;9.666;2023-08-01T14:17:11;24.60;58.10
21580;DHT22;10951;59.656;9.666;2023-08-01T14:19:37;24.70;59.70
21580;DHT22;10951;59.656;9.666;2023-08-01T14:22:04;25.00;57.40
21580;DHT22;10951;59.656;9.666;2023-08-01T14:24:31;25.10;55.00
21580;DHT22;10951;59.656;9.666;2023-08-01T14:26:58;25.20;55.40
21580;DHT22;10951;59.656;9.666;2023-08-01T14:29:25;25.30;56.90
21580;DHT22;10951;59.656;9.666;2023-08-01T14:31:52;25.40;57.60
21580;DHT22;10951;59.656;9.666;2023-08-01T14:34:19;25.20;56.90
21580;DHT22;10951;59.656;9.666;2023-08-01T14:36:46;24.90;56.00
21580;DHT22;10951;59.656;9.666;2023-08-01T14:39:13;24.80;57.40
21580;DHT22;10951;59.656;9.666;2023-08-01T14:41:49;24.80;56.40
21580;DHT22;10951;59.656;9.666;2023-08-01T14:44:19;24.60;56.60
21580;DHT22;10951;59.656;9.666;2023-08-01T14:46:46;24.70;56.20
21580;DHT22;10951;59.656;9.666;2023-08-01T14:49:13;24.90;56.20
21580;DHT22;10951;59.656;9.666;2023-08-01T14:51:40;25.00;54.10
21580;DHT22;10951;59.656;9.666;2023-08-01T14:54:08;25.00;54.10
21580;DHT22;10951;59.656;9.666;2023-08-01T14:56:35;25.20;55.10
21580;DHT22;10951;59.656;9.666;2023-08-01T14:59:02;25.20;55.00
21580;DHT22;10951;59.656;9.666;2023-08-01T15:01:30;25.20;54.70
21580;DHT22;10951;59.656;9.666;2023-08-01T15:03:57;25.30;53.50
21580;DHT22;10951;59.656;9.666;2023-08-01T15:06:24;25.50;54.80
21580;DHT22;10951;59.656;9.666;2023-08-01T15:08:53;25.60;54.40
21580;DHT22;10951;59.656;9.666;2023-08-01T15:11:20;25.70;53.10
21580;DHT22;10951;59.656;9.666;2023-08-01T15:13:47;25.80;52.50
21580;DHT22;10951;59.656;9.666;2023-08-01T15:16:15;25.90;52.50
21580;DHT22;10951;59.656;9.666;2023-08-01T15:18:41;26.00;55.00
21580;DHT22;10951;59.656;9.666;2023-08-01T15:21:09;26.20;53.90
21580;DHT22;10951;59.656;9.666;2023-08-01T15:23:36;26.40;53.10
21580;DHT22;10951;59.656;9.666;2023-08-01T15:26:02;26.50;53.30
21580;DHT22;10951;59.656;9.666;2023-08-01T15:28:29;26.10;52.60
21580;DHT22;10951;59.656;9.666;2023-08-01T15:33:33;25.60;54.10
21580;DHT22;10951;59.656;9.666;2023-08-01T15:36:02;25.20;53.90
21580;DHT22;10951;59.656;9.666;2023-08-01T15:38:30;24.90;54.80
21580;DHT22;10951;59.656;9.666;2023-08-01T15:40:58;24.60;54.30
21580;DHT22;10951;59.656;9.666;2023-08-01T15:43:25;24.40;54.60